Time;durP1;ratioP1;P1;durP2;ratioP2;P2;SDS_P1;SDS_P2;PMS_P1;PMS_P2;Temp;Humidity;BMP_temperature;BMP_pressure;BME280_temperature;BME280_humidity;BME280_pressure;Samples;Min_cycle;Max_cycle;Signal;HPM_P1;HPM_P2
2021/11/27 00:00:20;;;;;;;10.23;7.70;;;8.00;89.50;;;;;;5025216;28;20033;-81
2021/11/27 00:02:45;;;;;;;12.60;8.40;;;8.00;89.60;;;;;;5029955;28;20030;-81
2021/11/27 00:05:12;;;;;;;11.27;7.40;;;8.10;89.60;;;;;;5025310;28;20500;-80
2021/11/27 00:07:38;;;;;;;10.95;8.25;;;8.10;89.60;;;;;;5016596;28;20033;-81
2021/11/27 00:10:07;;;;;;;13.27;7.65;;;8.10;89.70;;;;;;5033359;28;20030;-82
2021/11/27 00:12:32;;;;;;;11.38;6.93;;;8.10;89.70;;;;;;5031749;28;20518;-80
2021/11/27 00:14:58;;;;;;;10.93;7.47;;;8.10;89.70;;;;;;5027832;28;20030;-81
2021/11/27 00:17:24;;;;;;;12.32;7.85;;;8.10;89.80;;;;;;5017340;28;20500;-80
2021/11/27 00:19:50;;;;;;;14.57;8.35;;;8.10;89.80;;;;;;5031060;28;20029;-81
2021/11/27 00:22:16;;;;;;;10.45;7.10;;;8.20;89.90;;;;;;5032709;28;20439;-83
2021/11/27 00:24:42;;;;;;;10.38;7.90;;;8.20;89.90;;;;;;5022285;28;20050;-81
2021/11/27 00:27:08;;;;;;;12.85;8.95;;;8.10;90.00;;;;;;5028996;28;20022;-81
2021/11/27 00:29:34;;;;;;;12.85;7.93;;;8.10;90.00;;;;;;5013463;28;20375;-81
2021/11/27 00:31:59;;;;;;;14.52;8.35;;;8.10;90.00;;;;;;5029711;28;20026;-81
2021/11/27 00:34:25;;;;;;;12.48;8.38;;;8.20;90.00;;;;;;5032713;28;20037;-82
2021/11/27 00:36:52;;;;;;;10.15;7.18;;;8.20;90.00;;;;;;5030531;28;20041;-81
2021/11/27 00:39:19;;;;;;;11.85;8.10;;;8.20;90.00;;;;;;5031712;28;20030;-81
2021/11/27 00:41:45;;;;;;;11.30;8.18;;;8.20;90.00;;;;;;5031634;28;20045;-81
2021/11/27 00:44:12;;;;;;;10.32;7.78;;;8.20;90.10;;;;;;5031457;28;20076;-81
2021/11/27 00:46:38;;;;;;;10.95;7.15;;;8.20;90.10;;;;;;5032497;28;20061;-82
2021/11/27 00:49:04;;;;;;;11.52;8.52;;;8.20;90.10;;;;;;5030706;28;20025;-81
2021/11/27 00:51:30;;;;;;;10.40;7.10;;;8.20;90.10;;;;;;5033203;28;20033;-81
2021/11/27 00:53:57;;;;;;;8.65;6.20;;;8.20;90.10;;;;;;5033220;28;20044;-81
2021/11/27 00:56:24;;;;;;;9.95;6.60;;;8.20;90.10;;;;;;5031013;28;20473;-81
2021/11/27 00:58:50;;;;;;;9.85;7.03;;;8.20;90.10;;;;;;5031060;28;20033;-81
2021/11/27 01:01:22;;;;;;;10.48;7.35;;;8.20;90.10;;;;;;5018619;28;20420;-81
2021/11/27 01:03:49;;;;;;;10.38;7.47;;;8.20;90.00;;;;;;5029835;28;20393;-80
2021/11/27 01:06:17;;;;;;;10.27;7.18;;;8.20;90.00;;;;;;5020355;28;20084;-81
2021/11/27 01:08:43;;;;;;;10.07;6.80;;;8.20;90.00;;;;;;5029442;28;20112;-81
2021/11/27 01:11:46;;;;;;;9.27;6.53;;;8.20;90.00;;;;;;5031873;28;20144;-82
2021/11/27 01:14:15;;;;;;;8.75;5.50;;;8.10;90.00;;;;;;5023214;28;20052;-82
2021/11/27 01:16:45;;;;;;;11.07;6.38;;;8.20;90.00;;;;;;5027074;28;20112;-81
2021/11/27 01:19:11;;;;;;;9.27;6.57;;;8.20;90.00;;;;;;5014494;28;20482;-81
2021/11/27 01:21:39;;;;;;;10.23;6.70;;;8.20;89.90;;;;;;5024676;28;20461;-81
2021/11/27 01:24:10;;;;;;;10.38;7.53;;;8.20;89.90;;;;;;5017755;28;20034;-82
2021/11/27 01:26:37;;;;;;;9.98;6.95;;;8.20;89.90;;;;;;5026890;28;20040;-81
2021/11/27 01:29:03;;;;;;;9.65;7.03;;;8.20;89.80;;;;;;5029130;28;20063;-81
2021/11/27 01:31:29;;;;;;;12.65;7.18;;;8.20;89.80;;;;;;5030282;28;20553;-81
2021/11/27 01:33:55;;;;;;;9.82;6.30;;;8.20;89.80;;;;;;5026911;28;20116;-81
2021/11/27 01:36:21;;;;;;;12.32;7.00;;;8.20;89.80;;;;;;5019989;28;20030;-81
2021/11/27 01:38:46;;;;;;;12.13;6.93;;;8.20;89.70;;;;;;5025669;28;20083;-82
2021/11/27 01:41:14;;;;;;;11.40;6.80;;;8.20;89.70;;;;;;5025415;28;20085;-81
2021/11/27 01:43:44;;;;;;;9.63;6.43;;;8.20;89.70;;;;;;5029094;28;20489;-81
2021/11/27 01:46:12;;;;;;;18.75;7.45;;;8.10;89.70;;;;;;5023003;28;20026;-80
2021/11/27 01:48:38;;;;;;;9.85;7.40;;;8.10;89.60;;;;;;5030297;28;20516;-81
2021/11/27 01:51:09;;;;;;;9.48;6.93;;;8.10;89.60;;;;;;5017410;28;20124;-81
2021/11/27 01:53:39;;;;;;;9.45;6.50;;;8.10;89.60;;;;;;5030793;28;20037;-80
2021/11/27 01:56:10;;;;;;;8.98;6.30;;;8.20;89.60;;;;;;5017031;28;20034;-80
2021/11/27 01:58:37;;;;;;;11.27;6.75;;;8.10;89.50;;;;;;5030713;28;20026;-81
2021/11/27 02:01:12;;;;;;;8.07;5.80;;;8.10;89.50;;;;;;5030353;28;20051;-81
2021/11/27 02:03:40;;;;;;;11.95;7.57;;;8.10;89.60;;;;;;5028463;28;20037;-81
2021/11/27 02:06:16;;;;;;;13.40;8.70;;;8.10;89.50;;;;;;5014540;28;20017;-80
2021/11/27 02:08:43;;;;;;;11.75;7.90;;;8.10;89.50;;;;;;5019935;28;20075;-80
2021/11/27 02:11:11;;;;;;;10.93;7.10;;;8.10;89.50;;;;;;5027979;28;20025;-81
2021/11/27 02:13:38;;;;;;;14.38;7.88;;;8.10;89.50;;;;;;5028012;28;20397;-81
2021/11/27 02:16:06;;;;;;;8.98;6.78;;;8.10;89.50;;;;;;5027361;28;20481;-81
2021/11/27 02:18:32;;;;;;;11.85;7.45;;;8.00;89.50;;;;;;5027540;28;20030;-81
2021/11/27 02:21:21;;;;;;;9.88;6.95;;;8.10;89.60;;;;;;5028169;28;20017;-81
2021/11/27 02:23:48;;;;;;;12.65;8.55;;;8.10;89.70;;;;;;5029540;28;20041;-81
2021/11/27 02:26:16;;;;;;;10.45;6.85;;;8.00;89.60;;;;;;5027051;28;20694;-81
2021/11/27 02:28:49;;;;;;;10.02;6.95;;;8.00;89.60;;;;;;5027884;28;20025;-81
2021/11/27 02:31:15;;;;;;;12.45;7.28;;;8.10;89.80;;;;;;5028954;28;20033;-81
2021/11/27 02:33:42;;;;;;;10.35;7.13;;;8.00;89.70;;;;;;5022571;28;20041;-81
2021/11/27 02:36:08;;;;;;;9.68;7.15;;;8.00;89.70;;;;;;5022875;28;20109;-81
2021/11/27 02:38:35;;;;;;;11.88;7.80;;;8.10;89.80;;;;;;5029126;28;20059;-81
2021/11/27 02:41:01;;;;;;;11.23;7.45;;;8.00;89.80;;;;;;5019724;28;20054;-80
2021/11/27 02:43:27;;;;;;;12.52;7.60;;;8.00;89.70;;;;;;5024912;28;20374;-81
2021/11/27 02:45:53;;;;;;;11.43;7.55;;;8.00;89.80;;;;;;5027038;28;20480;-81
2021/11/27 02:48:19;;;;;;;9.13;7.10;;;8.00;89.80;;;;;;5029772;28;20493;-81
2021/11/27 02:50:45;;;;;;;11.27;7.28;;;8.00;89.80;;;;;;5033946;28;20034;-82
2021/11/27 02:53:11;;;;;;;12.07;7.95;;;8.00;90.20;;;;;;5033870;28;20120;-81
2021/11/27 02:55:38;;;;;;;11.98;9.10;;;8.00;89.90;;;;;;5031765;28;20085;-81
2021/11/27 02:58:03;;;;;;;10.18;7.50;;;8.00;90.00;;;;;;5024819;28;20470;-81
2021/11/27 03:00:29;;;;;;;11.52;8.50;;;8.00;90.00;;;;;;5033827;28;20033;-81
2021/11/27 03:02:55;;;;;;;10.43;7.57;;;8.00;90.00;;;;;;5032470;28;20576;-81
2021/11/27 03:05:21;;;;;;;10.10;7.65;;;8.00;90.00;;;;;;5025103;28;20049;-81
2021/11/27 03:07:49;;;;;;;10.63;7.97;;;8.00;90.00;;;;;;5033214;28;20064;-80
2021/11/27 03:10:16;;;;;;;11.10;8.27;;;8.10;90.10;;;;;;5032283;28;20099;-81
2021/11/27 03:12:42;;;;;;;10.48;7.82;;;8.00;90.10;;;;;;5034112;28;20044;-82
2021/11/27 03:15:14;;;;;;;10.85;7.60;;;8.00;90.20;;;;;;5031198;28;20481;-81
2021/11/27 03:17:40;;;;;;;11.00;7.93;;;8.00;90.20;;;;;;5029816;28;20505;-82
2021/11/27 03:20:09;;;;;;;11.85;7.43;;;8.00;90.20;;;;;;5019425;28;20124;-82
2021/11/27 03:22:35;;;;;;;11.98;8.48;;;8.00;90.20;;;;;;5023265;28;20079;-82
2021/11/27 03:25:01;;;;;;;12.68;8.32;;;8.10;90.30;;;;;;5031478;28;20034;-81
2021/11/27 03:27:27;;;;;;;11.75;8.57;;;8.10;90.30;;;;;;5033102;28;20071;-81
2021/11/27 03:29:52;;;;;;;12.88;8.43;;;8.10;90.30;;;;;;5031910;28;20550;-82
2021/11/27 03:32:19;;;;;;;11.98;8.43;;;8.10;90.30;;;;;;5032173;28;20018;-83
2021/11/27 03:34:55;;;;;;;13.98;8.77;;;8.10;90.30;;;;;;5031707;28;20033;-81
2021/11/27 03:37:24;;;;;;;13.45;8.82;;;8.10;90.30;;;;;;5032063;28;20114;-82
2021/11/27 03:39:50;;;;;;;13.27;9.05;;;8.10;90.30;;;;;;5033218;28;20493;-81
2021/11/27 03:42:17;;;;;;;12.60;8.20;;;8.20;90.40;;;;;;5034963;28;20128;-81
2021/11/27 03:44:45;;;;;;;14.55;8.05;;;8.10;90.40;;;;;;5031372;28;20044;-81
2021/11/27 03:47:11;;;;;;;15.32;8.68;;;8.10;90.40;;;;;;5018090;28;20034;-82
2021/11/27 03:49:37;;;;;;;16.23;8.38;;;8.20;90.40;;;;;;5032632;28;20515;-81
2021/11/27 03:52:03;;;;;;;13.45;8.27;;;8.20;90.40;;;;;;5031182;28;20025;-82
2021/11/27 03:54:35;;;;;;;13.88;9.38;;;8.20;90.40;;;;;;5030806;28;20125;-81
2021/11/27 03:57:00;;;;;;;13.32;8.52;;;8.20;90.40;;;;;;5029266;28;20505;-81
2021/11/27 03:59:27;;;;;;;13.30;8.55;;;8.20;90.40;;;;;;5022059;28;20032;-82
2021/11/27 04:01:54;;;;;;;17.17;9.02;;;8.20;90.50;;;;;;5032154;28;20030;-81
2021/11/27 04:04:21;;;;;;;16.20;9.27;;;8.20;90.50;;;;;;5030668;28;20042;-81
2021/11/27 04:06:47;;;;;;;15.27;8.90;;;8.20;90.50;;;;;;5030827;28;20025;-81
2021/11/27 04:09:14;;;;;;;14.50;8.95;;;8.20;90.50;;;;;;5032868;28;20056;-81
2021/11/27 04:11:42;;;;;;;16.58;9.00;;;8.30;90.50;;;;;;5023216;28;20032;-81
2021/11/27 04:14:17;;;;;;;13.95;8.35;;;8.20;90.50;;;;;;5029139;28;20029;-81
2021/11/27 04:16:50;;;;;;;14.13;9.20;;;8.30;90.50;;;;;;5027551;28;20091;-81
2021/11/27 04:19:16;;;;;;;13.85;8.65;;;8.30;90.50;;;;;;5027063;28;20379;-81
2021/11/27 04:21:41;;;;;;;14.55;9.05;;;8.30;90.50;;;;;;5027976;28;20037;-81
2021/11/27 04:24:07;;;;;;;12.55;7.72;;;8.30;90.60;;;;;;5030958;28;20038;-81
2021/11/27 04:26:33;;;;;;;14.88;8.40;;;8.30;90.60;;;;;;5029006;28;20078;-81
2021/11/27 04:28:59;;;;;;;15.52;9.30;;;8.30;90.60;;;;;;5028708;28;20803;-81
2021/11/27 04:31:26;;;;;;;14.25;8.75;;;8.30;90.60;;;;;;5031405;28;20017;-81
2021/11/27 04:33:53;;;;;;;13.40;8.23;;;8.30;90.60;;;;;;5027302;28;20044;-81
2021/11/27 04:36:20;;;;;;;15.95;9.88;;;8.30;90.60;;;;;;5031308;28;20040;-81
2021/11/27 04:38:48;;;;;;;14.27;8.43;;;8.30;90.90;;;;;;5026919;28;20495;-82
2021/11/27 04:41:15;;;;;;;16.30;9.45;;;8.30;90.60;;;;;;5027179;28;20072;-81
2021/11/27 04:43:41;;;;;;;12.63;8.20;;;8.30;90.70;;;;;;5018352;28;20552;-82
2021/11/27 04:46:06;;;;;;;15.10;9.05;;;8.30;90.70;;;;;;5028543;28;20156;-81
2021/11/27 04:48:34;;;;;;;15.65;9.13;;;8.30;90.70;;;;;;5028540;28;20030;-81
2021/11/27 04:51:00;;;;;;;14.15;8.38;;;8.30;90.70;;;;;;5030355;28;20028;-81
2021/11/27 04:53:27;;;;;;;11.98;7.65;;;8.40;90.70;;;;;;5030393;28;20029;-82
2021/11/27 04:55:56;;;;;;;14.55;8.90;;;8.40;90.80;;;;;;5027320;28;20512;-81
2021/11/27 04:58:22;;;;;;;15.70;7.95;;;8.40;90.80;;;;;;5030395;28;20531;-81
2021/11/27 05:00:52;;;;;;;12.15;7.78;;;8.30;90.70;;;;;;5029229;28;20116;-81
2021/11/27 05:03:31;;;;;;;11.93;7.38;;;8.30;90.80;;;;;;5030799;28;20037;-82
2021/11/27 05:05:57;;;;;;;10.93;7.15;;;8.30;90.80;;;;;;5025915;28;20025;-81
2021/11/27 05:08:23;;;;;;;12.52;7.18;;;8.30;90.80;;;;;;5027697;28;20587;-81
2021/11/27 05:10:49;;;;;;;12.05;7.57;;;8.40;90.80;;;;;;5027438;28;20033;-82
2021/11/27 05:13:15;;;;;;;11.55;6.35;;;8.30;90.80;;;;;;5029211;28;20045;-81
2021/11/27 05:15:41;;;;;;;13.02;7.43;;;8.30;90.80;;;;;;5032922;28;20025;-81
2021/11/27 05:18:12;;;;;;;10.63;6.80;;;8.40;90.80;;;;;;5026621;28;20029;-81
2021/11/27 05:20:57;;;;;;;10.30;6.88;;;8.30;90.80;;;;;;5014809;28;20397;-82
2021/11/27 05:23:23;;;;;;;9.48;6.20;;;8.40;90.80;;;;;;5029587;28;20132;-81
2021/11/27 05:25:50;;;;;;;10.90;6.97;;;8.40;90.80;;;;;;5026998;28;20029;-85
2021/11/27 05:28:36;;;;;;;9.25;6.35;;;8.30;90.80;;;;;;5015353;28;20038;-85
2021/11/27 05:31:23;;;;;;;9.82;6.80;;;8.30;91.00;;;;;;5015235;28;20033;-83
2021/11/27 05:36:34;;;;;;;9.75;6.28;;;8.30;90.80;;;;;;5019311;28;20033;-81
2021/11/27 05:39:01;;;;;;;8.50;6.05;;;8.40;90.80;;;;;;5018827;28;20033;-80
2021/11/27 05:41:27;;;;;;;10.40;6.78;;;8.30;90.80;;;;;;5030781;28;20054;-82
2021/11/27 05:43:57;;;;;;;9.30;6.30;;;8.30;90.80;;;;;;5043773;28;20042;-80
2021/11/27 05:46:23;;;;;;;11.13;7.03;;;8.30;90.80;;;;;;5018351;28;20554;-81
2021/11/27 05:48:49;;;;;;;11.73;6.88;;;8.30;90.80;;;;;;5026843;28;20116;-80
2021/11/27 05:51:30;;;;;;;9.75;6.55;;;8.30;91.10;;;;;;5025043;28;20033;-80
2021/11/27 05:53:55;;;;;;;9.07;5.60;;;8.30;90.80;;;;;;5027406;28;20030;-80
2021/11/27 05:56:21;;;;;;;10.88;6.95;;;8.30;90.80;;;;;;5031997;28;20026;-80
2021/11/27 05:58:47;;;;;;;11.38;7.07;;;8.30;90.80;;;;;;5018808;28;20478;-81
2021/11/27 06:01:13;;;;;;;8.13;5.50;;;8.30;91.10;;;;;;5013277;28;20025;-81
2021/11/27 06:03:38;;;;;;;9.40;5.82;;;8.30;90.80;;;;;;5024295;28;20539;-83
2021/11/27 06:06:05;;;;;;;10.85;5.60;;;8.30;90.80;;;;;;5027767;28;20080;-80
2021/11/27 06:08:30;;;;;;;8.15;4.82;;;8.30;90.80;;;;;;5029143;28;20052;-80
2021/11/27 06:10:57;;;;;;;6.22;3.80;;;8.30;90.80;;;;;;5027001;28;20489;-70
2021/11/27 06:13:22;;;;;;;8.15;4.55;;;8.30;90.70;;;;;;5031055;28;20025;-81
2021/11/27 06:15:48;;;;;;;9.57;6.03;;;8.40;90.80;;;;;;5022484;28;20044;-81
2021/11/27 06:18:14;;;;;;;7.05;4.38;;;8.40;90.70;;;;;;5028499;28;20043;-81
2021/11/27 06:20:39;;;;;;;11.38;7.30;;;8.30;90.70;;;;;;5020486;28;20029;-81
2021/11/27 06:23:05;;;;;;;10.35;6.47;;;8.40;90.70;;;;;;5028145;28;20068;-82
2021/11/27 06:25:31;;;;;;;10.82;7.53;;;8.30;90.60;;;;;;5027273;28;20060;-81
2021/11/27 06:27:57;;;;;;;12.60;7.57;;;8.30;90.60;;;;;;5030073;28;20087;-81
2021/11/27 06:30:23;;;;;;;12.10;7.20;;;8.30;90.60;;;;;;5033553;28;20036;-80
2021/11/27 06:32:49;;;;;;;11.75;7.63;;;8.40;90.60;;;;;;5032502;28;20033;-81
2021/11/27 06:35:15;;;;;;;12.13;7.53;;;8.30;90.60;;;;;;5031359;28;20036;-81
2021/11/27 06:37:41;;;;;;;11.05;7.63;;;8.30;90.60;;;;;;5023524;28;20032;-81
2021/11/27 06:40:08;;;;;;;13.85;8.95;;;8.30;90.60;;;;;;5033986;28;20021;-81
2021/11/27 06:42:41;;;;;;;11.52;7.57;;;8.30;90.60;;;;;;5028829;28;20041;-82
2021/11/27 06:45:18;;;;;;;11.63;7.93;;;8.30;90.60;;;;;;5026799;28;20045;-82
2021/11/27 06:47:58;;;;;;;13.40;7.45;;;8.30;90.70;;;;;;5025899;28;20037;-86
2021/11/27 06:50:25;;;;;;;11.40;7.50;;;8.30;90.60;;;;;;5023923;28;20064;-87
2021/11/27 06:52:51;;;;;;;10.00;5.88;;;8.30;90.70;;;;;;5036883;28;20040;-83
2021/11/27 06:55:17;;;;;;;13.10;8.52;;;8.30;90.70;;;;;;5035971;28;20052;-91
2021/11/27 06:57:43;;;;;;;9.90;5.93;;;8.30;90.70;;;;;;5026905;28;20390;-90
2021/11/27 07:00:10;;;;;;;11.82;7.63;;;8.30;90.70;;;;;;5029263;28;20033;-88
2021/11/27 07:02:55;;;;;;;16.20;8.00;;;8.30;90.70;;;;;;5035218;28;20388;-92
2021/11/27 07:05:46;;;;;;;12.25;7.60;;;8.30;90.70;;;;;;5012563;28;20041;-78
2021/11/27 07:08:17;;;;;;;13.70;8.70;;;8.30;90.70;;;;;;5028714;28;20473;-77
2021/11/27 07:11:23;;;;;;;12.07;7.80;;;8.30;90.70;;;;;;5020195;28;20037;-79
2021/11/27 07:13:50;;;;;;;11.60;8.18;;;8.20;90.70;;;;;;5030808;28;20029;-76
2021/11/27 07:16:15;;;;;;;12.40;8.13;;;8.20;90.70;;;;;;5033169;28;20078;-77
2021/11/27 07:18:41;;;;;;;12.32;8.60;;;8.20;90.70;;;;;;5026960;28;20036;-76
2021/11/27 07:21:07;;;;;;;11.27;7.43;;;8.20;90.80;;;;;;5029620;28;20025;-78
2021/11/27 07:23:33;;;;;;;17.45;9.07;;;8.20;90.80;;;;;;5032292;28;20041;-78
2021/11/27 07:25:58;;;;;;;11.27;7.18;;;8.20;90.80;;;;;;5032025;28;20029;-77
2021/11/27 07:28:46;;;;;;;13.32;8.25;;;8.20;90.80;;;;;;5027731;28;20149;-76
2021/11/27 07:31:12;;;;;;;14.10;9.23;;;8.30;90.90;;;;;;5032599;28;20112;-79
2021/11/27 07:33:38;;;;;;;10.77;7.35;;;8.30;90.90;;;;;;5028358;28;20025;-76
2021/11/27 07:36:05;;;;;;;10.32;6.28;;;8.30;90.90;;;;;;5033454;28;20354;-80
2021/11/27 07:38:31;;;;;;;13.00;9.40;;;8.20;90.90;;;;;;5029072;28;21309;-76
2021/11/27 07:40:58;;;;;;;9.85;6.07;;;8.30;90.90;;;;;;5027109;28;20126;-76
2021/11/27 07:43:24;;;;;;;9.90;6.47;;;8.30;90.90;;;;;;5032483;28;20041;-77
2021/11/27 07:45:57;;;;;;;12.55;8.68;;;8.30;91.10;;;;;;5032724;28;20044;-80
2021/11/27 07:48:41;;;;;;;12.50;7.80;;;8.30;90.90;;;;;;5028875;28;20037;-73
2021/11/27 07:51:22;;;;;;;16.88;8.18;;;8.30;90.90;;;;;;5030338;28;20076;-79
2021/11/27 07:53:54;;;;;;;7.18;4.35;;;8.30;90.90;;;;;;5028962;28;20060;-79
2021/11/27 07:56:19;;;;;;;13.05;7.97;;;8.30;90.90;;;;;;5024146;28;20099;-79
2021/11/27 07:58:45;;;;;;;12.65;7.50;;;8.30;90.90;;;;;;5026573;28;20179;-79
2021/11/27 08:01:11;;;;;;;12.82;8.13;;;8.30;90.80;;;;;;5022386;28;20026;-79
2021/11/27 08:03:37;;;;;;;14.23;7.03;;;8.40;90.90;;;;;;5027733;28;20046;-78
2021/11/27 08:06:03;;;;;;;14.02;8.55;;;8.40;90.80;;;;;;5015827;28;20028;-79
2021/11/27 08:08:29;;;;;;;12.00;6.75;;;8.40;90.80;;;;;;5028373;28;20425;-79
2021/11/27 08:10:54;;;;;;;11.05;6.80;;;8.50;90.80;;;;;;5022705;28;20117;-79
2021/11/27 08:13:20;;;;;;;10.23;6.03;;;8.50;90.80;;;;;;5024334;28;20056;-80
2021/11/27 08:15:46;;;;;;;12.23;7.82;;;8.50;90.80;;;;;;5025578;28;20078;-80
2021/11/27 08:18:12;;;;;;;12.52;6.78;;;8.50;90.70;;;;;;5026562;28;20026;-80
2021/11/27 08:20:37;;;;;;;15.40;6.03;;;8.50;90.70;;;;;;5033145;28;20414;-80
2021/11/27 08:23:05;;;;;;;11.10;6.40;;;8.50;90.70;;;;;;5027153;28;20381;-79
2021/11/27 08:25:31;;;;;;;14.43;8.07;;;8.50;90.70;;;;;;5031002;28;20033;-79
2021/11/27 08:28:00;;;;;;;11.57;6.93;;;8.50;90.70;;;;;;5030741;28;20030;-79
2021/11/27 08:30:27;;;;;;;14.68;6.82;;;8.60;90.70;;;;;;5016154;28;20026;-79
2021/11/27 08:32:53;;;;;;;11.50;7.82;;;8.50;90.60;;;;;;5023972;28;20519;-79
2021/11/27 08:35:19;;;;;;;15.45;7.10;;;8.50;90.70;;;;;;5033267;28;20402;-79
2021/11/27 08:37:45;;;;;;;10.43;5.43;;;8.60;90.70;;;;;;5033245;28;20029;-79
2021/11/27 08:40:12;;;;;;;11.50;6.22;;;8.60;90.70;;;;;;5031222;28;20033;-79
2021/11/27 08:42:37;;;;;;;14.77;6.30;;;8.60;90.70;;;;;;5021388;28;20042;-79
2021/11/27 08:45:04;;;;;;;9.23;6.40;;;8.60;90.60;;;;;;5021204;28;20493;-79
2021/11/27 08:47:30;;;;;;;11.18;6.72;;;8.60;90.70;;;;;;5017641;28;20036;-79
2021/11/27 08:49:58;;;;;;;11.15;6.90;;;8.50;90.60;;;;;;5033780;28;20037;-79
2021/11/27 08:52:24;;;;;;;9.35;5.78;;;8.60;90.60;;;;;;5032384;28;20060;-79
2021/11/27 08:54:49;;;;;;;9.80;5.88;;;8.60;90.60;;;;;;5023919;28;20049;-79
2021/11/27 08:57:15;;;;;;;10.45;6.38;;;8.60;90.60;;;;;;5027486;28;20025;-79
2021/11/27 08:59:41;;;;;;;7.07;4.30;;;8.60;90.60;;;;;;5020558;28;20029;-79
2021/11/27 09:02:07;;;;;;;10.75;5.97;;;8.60;90.60;;;;;;5033191;28;20038;-79
2021/11/27 09:04:34;;;;;;;10.68;6.85;;;8.60;90.60;;;;;;5020073;28;20040;-79
2021/11/27 09:07:00;;;;;;;9.18;5.43;;;8.60;90.60;;;;;;5024160;28;20243;-79
2021/11/27 09:09:26;;;;;;;9.73;5.57;;;8.60;90.60;;;;;;5029619;28;20034;-79
2021/11/27 09:11:53;;;;;;;9.00;5.78;;;8.60;90.60;;;;;;5020740;28;20068;-79
2021/11/27 09:14:19;;;;;;;11.65;5.95;;;8.60;90.50;;;;;;5024570;28;20030;-79
2021/11/27 09:16:46;;;;;;;10.30;4.93;;;8.70;90.60;;;;;;5022608;28;20466;-79
2021/11/27 09:19:11;;;;;;;9.68;5.97;;;8.70;90.60;;;;;;5026725;28;20127;-78
2021/11/27 09:21:37;;;;;;;6.65;3.58;;;8.60;90.50;;;;;;5018938;28;20046;-79
2021/11/27 09:24:04;;;;;;;10.07;5.72;;;8.70;90.60;;;;;;5029813;28;20120;-78
2021/11/27 09:26:31;;;;;;;9.68;5.25;;;8.70;90.60;;;;;;5029673;28;20052;-79
2021/11/27 09:28:57;;;;;;;13.52;7.20;;;8.60;90.50;;;;;;5027698;28;20029;-79
2021/11/27 09:31:23;;;;;;;13.48;6.60;;;8.70;90.50;;;;;;5032277;28;20381;-79
2021/11/27 09:33:49;;;;;;;14.45;7.10;;;8.70;90.50;;;;;;5029449;28;20037;-78
2021/11/27 09:36:16;;;;;;;12.93;6.13;;;8.70;90.50;;;;;;5030953;28;20022;-79
2021/11/27 09:38:43;;;;;;;10.82;6.00;;;8.70;90.50;;;;;;5027202;28;20037;-78
2021/11/27 09:41:23;;;;;;;10.63;6.18;;;8.70;90.50;;;;;;5023877;28;20060;-79
2021/11/27 09:43:51;;;;;;;10.38;6.45;;;8.70;90.50;;;;;;5015232;28;20049;-79
2021/11/27 09:46:20;;;;;;;20.50;8.75;;;8.70;90.50;;;;;;5024114;28;20037;-79
2021/11/27 09:48:51;;;;;;;12.65;7.85;;;8.70;90.50;;;;;;5029048;28;20071;-78
2021/11/27 09:51:18;;;;;;;13.88;6.93;;;8.70;90.50;;;;;;5032303;28;20030;-79
2021/11/27 09:53:45;;;;;;;10.60;6.25;;;8.70;90.50;;;;;;5031168;28;20033;-79
2021/11/27 09:56:11;;;;;;;11.52;7.10;;;8.80;90.50;;;;;;5018944;28;20057;-79
2021/11/27 09:58:38;;;;;;;12.15;7.15;;;8.80;90.50;;;;;;5029877;28;20494;-79
2021/11/27 10:01:06;;;;;;;13.68;7.97;;;8.80;90.50;;;;;;5026380;28;20033;-79
2021/11/27 10:03:33;;;;;;;12.45;6.82;;;8.80;90.60;;;;;;5025112;28;20049;-78
2021/11/27 10:06:00;;;;;;;12.98;7.57;;;8.80;90.50;;;;;;5013149;28;20104;-79
2021/11/27 10:08:26;;;;;;;11.40;6.65;;;8.80;90.50;;;;;;5025496;28;20104;-79
2021/11/27 10:10:52;;;;;;;12.18;7.07;;;8.80;90.50;;;;;;5017159;28;20034;-78
2021/11/27 10:13:19;;;;;;;8.93;4.97;;;8.80;90.50;;;;;;5015155;28;20104;-78
2021/11/27 10:15:46;;;;;;;8.95;6.03;;;8.80;90.50;;;;;;5027659;28;20037;-79
2021/11/27 10:18:14;;;;;;;12.02;5.78;;;8.90;90.50;;;;;;5025008;28;20033;-78
2021/11/27 10:20:40;;;;;;;14.88;8.52;;;8.80;90.50;;;;;;5031779;28;20029;-79
2021/11/27 10:23:05;;;;;;;11.50;8.00;;;8.90;90.60;;;;;;5019787;28;20030;-79
2021/11/27 10:25:40;;;;;;;12.88;7.90;;;8.90;90.50;;;;;;5025008;28;20052;-78
2021/11/27 10:28:10;;;;;;;12.40;7.65;;;8.90;90.60;;;;;;5021981;28;20108;-79
2021/11/27 10:30:55;;;;;;;13.85;7.80;;;8.90;90.60;;;;;;5021155;28;20469;-79
2021/11/27 10:33:22;;;;;;;10.52;6.28;;;8.90;90.60;;;;;;5026100;28;20074;-79
2021/11/27 10:35:49;;;;;;;10.20;5.20;;;8.90;90.50;;;;;;5029073;28;20026;-78
2021/11/27 10:38:14;;;;;;;9.85;6.15;;;8.90;90.50;;;;;;5028944;28;20049;-79
2021/11/27 10:40:40;;;;;;;10.77;7.05;;;8.90;90.50;;;;;;5028765;28;20485;-78
2021/11/27 10:43:08;;;;;;;10.23;6.75;;;8.90;90.50;;;;;;5029725;28;20037;-79
2021/11/27 10:45:37;;;;;;;11.57;6.80;;;8.90;90.60;;;;;;5025198;28;20033;-78
2021/11/27 10:48:21;;;;;;;12.85;7.35;;;8.90;90.60;;;;;;5030266;28;20068;-79
2021/11/27 10:51:00;;;;;;;9.48;5.65;;;8.90;90.60;;;;;;5029452;28;20124;-79
2021/11/27 10:53:36;;;;;;;10.75;6.32;;;8.90;90.60;;;;;;5031325;28;20069;-79
2021/11/27 10:56:08;;;;;;;11.40;7.40;;;8.90;90.50;;;;;;5028176;28;20018;-78
2021/11/27 10:59:03;;;;;;;12.45;7.78;;;9.00;90.50;;;;;;5029847;28;20062;-70
2021/11/27 11:01:29;;;;;;;11.80;6.85;;;8.90;90.60;;;;;;5030554;28;20064;-85
2021/11/27 11:03:55;;;;;;;9.75;6.28;;;9.00;90.60;;;;;;5028459;28;20037;-75
2021/11/27 11:06:23;;;;;;;8.60;5.20;;;9.00;90.60;;;;;;5029783;28;20017;-85
2021/11/27 11:08:50;;;;;;;10.90;6.43;;;9.00;90.60;;;;;;5032107;28;20049;-81
2021/11/27 11:11:19;;;;;;;11.60;7.20;;;9.00;90.60;;;;;;5035114;28;20037;-82
2021/11/27 11:13:44;;;;;;;15.07;6.22;;;9.10;90.60;;;;;;5031650;28;20021;-79
2021/11/27 11:16:10;;;;;;;11.82;7.38;;;9.00;90.60;;;;;;5031911;28;20113;-83
2021/11/27 11:18:36;;;;;;;13.18;7.05;;;9.00;90.60;;;;;;5026753;28;20022;-82
2021/11/27 11:21:04;;;;;;;10.63;6.32;;;9.00;90.60;;;;;;5026790;28;20044;-79
2021/11/27 11:23:34;;;;;;;10.77;6.93;;;9.00;90.60;;;;;;5022225;28;20049;-74
2021/11/27 11:26:10;;;;;;;12.52;8.00;;;9.10;90.60;;;;;;5034751;28;20043;-79
2021/11/27 11:28:47;;;;;;;9.05;5.60;;;9.10;90.60;;;;;;5030268;28;20057;-79
2021/11/27 11:31:18;;;;;;;10.13;6.38;;;9.10;90.60;;;;;;5033697;28;20033;-81
2021/11/27 11:33:47;;;;;;;12.35;6.65;;;9.10;90.60;;;;;;5033636;28;20025;-78
2021/11/27 11:36:15;;;;;;;13.60;7.82;;;9.10;90.60;;;;;;5030119;28;20033;-78
2021/11/27 11:38:44;;;;;;;11.73;6.05;;;9.10;90.60;;;;;;5033337;28;20478;-78
2021/11/27 11:41:11;;;;;;;9.63;6.10;;;9.20;90.60;;;;;;5034222;28;20052;-78
2021/11/27 11:43:37;;;;;;;11.70;7.10;;;9.10;90.60;;;;;;5025091;28;20037;-78
2021/11/27 11:46:03;;;;;;;11.85;7.45;;;9.20;90.60;;;;;;5024444;28;20033;-79
2021/11/27 11:48:30;;;;;;;12.40;7.50;;;9.20;90.60;;;;;;5032210;28;20036;-69
2021/11/27 11:51:23;;;;;;;10.30;6.75;;;9.20;90.60;;;;;;5030616;28;20030;-82
2021/11/27 11:53:55;;;;;;;11.60;7.10;;;9.20;90.60;;;;;;5028861;28;20033;-80
2021/11/27 11:56:36;;;;;;;11.10;6.68;;;9.20;90.60;;;;;;5025361;28;20037;-79
2021/11/27 11:59:32;;;;;;;10.50;6.20;;;9.20;90.60;;;;;;5032283;28;20057;-79
2021/11/27 12:02:17;;;;;;;13.48;8.23;;;9.20;90.60;;;;;;5033856;28;20042;-74
2021/11/27 12:05:00;;;;;;;11.70;7.15;;;9.20;90.60;;;;;;5015286;28;20100;-77
2021/11/27 12:07:44;;;;;;;13.75;8.20;;;9.20;90.70;;;;;;5028504;28;20029;-82
2021/11/27 12:10:22;;;;;;;15.57;8.88;;;9.20;90.60;;;;;;5031683;28;20060;-82
2021/11/27 12:13:07;;;;;;;10.13;3.78;;;9.20;90.90;;;;;;5028966;28;20025;-81
2021/11/27 12:15:34;;;;;;;13.18;7.25;;;9.20;90.70;;;;;;5030920;28;20038;-85
2021/11/27 12:18:12;;;;;;;12.75;7.25;;;9.20;90.60;;;;;;5031016;28;20248;-83
2021/11/27 12:20:53;;;;;;;15.00;8.32;;;9.20;90.70;;;;;;5031268;28;20037;-84
2021/11/27 12:23:38;;;;;;;12.98;7.13;;;9.20;90.70;;;;;;5029239;28;20104;-74
2021/11/27 12:26:15;;;;;;;13.32;7.85;;;9.20;90.80;;;;;;5020493;28;20029;-84
2021/11/27 12:28:49;;;;;;;13.10;7.32;;;9.20;90.80;;;;;;5021213;28;20104;-85
2021/11/27 12:31:16;;;;;;;12.70;7.75;;;9.20;90.80;;;;;;5031863;28;20037;-77
2021/11/27 12:33:59;;;;;;;11.15;6.32;;;9.20;90.80;;;;;;5032627;28;20037;-78
2021/11/27 12:36:35;;;;;;;11.73;7.53;;;9.30;90.90;;;;;;5029794;28;20048;-79
2021/11/27 12:39:09;;;;;;;11.20;6.53;;;9.30;90.80;;;;;;5014838;28;20041;-78
2021/11/27 12:41:44;;;;;;;12.85;7.63;;;9.30;90.90;;;;;;5031354;28;20057;-80
2021/11/27 12:44:23;;;;;;;8.93;4.85;;;9.30;90.80;;;;;;5031844;28;20045;-83
2021/11/27 12:47:12;;;;;;;12.57;6.75;;;9.30;90.80;;;;;;5028508;28;20029;-81
2021/11/27 12:49:38;;;;;;;11.38;6.68;;;9.30;90.80;;;;;;5023620;28;20071;-78
2021/11/27 12:52:10;;;;;;;12.20;7.57;;;9.30;90.80;;;;;;5026015;28;20037;-78
2021/11/27 12:54:36;;;;;;;11.02;6.35;;;9.40;90.80;;;;;;5030421;28;20026;-80
2021/11/27 12:57:25;;;;;;;9.45;5.22;;;9.30;90.80;;;;;;5031179;28;20037;-81
2021/11/27 13:00:26;;;;;;;11.68;6.80;;;9.30;90.80;;;;;;5030361;28;20546;-79